createdAt,value
2023-01-13T00:01:16.438Z,-23.30
2023-01-13T00:04:19.510Z,-23.26
2023-01-13T00:07:23.517Z,-23.21
2023-01-13T00:10:26.650Z,-23.13
2023-01-13T00:13:29.830Z,-23.09
2023-01-13T00:16:32.939Z,-23.08
2023-01-13T00:19:36.052Z,-23.07
2023-01-13T00:22:39.196Z,-23.07
2023-01-13T00:25:42.460Z,-23.04
2023-01-13T00:28:45.780Z,-23.00
2023-01-13T00:31:50.187Z,-22.98
2023-01-13T00:34:53.813Z,-22.96
2023-01-13T00:37:56.879Z,-22.92
2023-01-13T00:41:02.135Z,-22.87
2023-01-13T00:44:05.543Z,-22.78
2023-01-13T00:47:09.153Z,-22.69
2023-01-13T00:50:12.327Z,-22.63
2023-01-13T00:53:15.676Z,-22.59
2023-01-13T00:56:38.404Z,-22.55
2023-01-13T00:59:42.735Z,-22.54
2023-01-13T01:02:55.831Z,-22.51
2023-01-13T01:06:05.437Z,-22.46
2023-01-13T01:09:08.657Z,-22.41
2023-01-13T01:12:11.823Z,-22.36
2023-01-13T01:15:15.662Z,-22.35
2023-01-13T01:18:23.889Z,-22.33
2023-01-13T01:21:31.438Z,-22.27
2023-01-13T01:24:38.105Z,-22.17
2023-01-13T01:27:43.582Z,-22.10
2023-01-13T01:30:52.487Z,-22.05
2023-01-13T01:34:02.216Z,-21.98
2023-01-13T01:37:07.051Z,-21.88
2023-01-13T01:40:12.652Z,-21.79
2023-01-13T01:43:37.678Z,-21.71
2023-01-13T01:46:43.182Z,-21.65
2023-01-13T01:49:47.206Z,-21.56
2023-01-13T01:53:03.166Z,-21.50
2023-01-13T01:56:08.461Z,-21.47
2023-01-13T01:59:12.586Z,-21.42
2023-01-13T02:02:16.191Z,-21.36
2023-01-13T02:05:19.429Z,-21.28
2023-01-13T02:08:22.801Z,-21.22
2023-01-13T02:11:49.386Z,-21.12
2023-01-13T02:14:52.560Z,-21.06
2023-01-13T02:18:29.293Z,-21.00
2023-01-13T02:21:52.096Z,-20.93
2023-01-13T02:25:16.971Z,-20.83
2023-01-13T02:29:06.184Z,-20.82
2023-01-13T02:32:44.996Z,-20.76
2023-01-13T02:36:03.115Z,-20.63
2023-01-13T02:39:42.261Z,-20.53
2023-01-13T02:43:12.027Z,-20.47
2023-01-13T02:46:42.283Z,-20.45
2023-01-13T02:49:52.295Z,-20.40
2023-01-13T02:53:29.986Z,-20.38
2023-01-13T02:56:38.978Z,-20.29
2023-01-13T02:59:43.576Z,-20.23
2023-01-13T03:02:49.188Z,-20.18
2023-01-13T03:06:00.216Z,-20.15
2023-01-13T03:09:16.047Z,-20.08
2023-01-13T03:12:24.949Z,-20.00
2023-01-13T03:16:00.228Z,-19.84
2023-01-13T03:19:31.322Z,-19.72
2023-01-13T03:22:49.491Z,-19.69
2023-01-13T03:26:03.498Z,-19.70
2023-01-13T03:29:12.533Z,-19.57
2023-01-13T03:32:22.934Z,-19.49
2023-01-13T03:35:35.149Z,-19.43
2023-01-13T03:38:48.865Z,-19.33
2023-01-13T03:42:12.400Z,-19.30
2023-01-13T03:45:19.028Z,-19.21
2023-01-13T03:48:26.969Z,-19.15
2023-01-13T03:51:32.829Z,-19.11
2023-01-13T03:54:45.193Z,-19.02
2023-01-13T03:58:11.106Z,-18.98
2023-01-13T04:01:30.021Z,-18.97
2023-01-13T04:04:50.637Z,-18.95
2023-01-13T04:07:57.195Z,-18.95
2023-01-13T04:11:08.055Z,-18.85
2023-01-13T04:14:13.556Z,-18.73
2023-01-13T04:17:17.343Z,-18.67
2023-01-13T04:20:20.767Z,-18.62
2023-01-13T04:23:24.765Z,-18.62
2023-01-13T04:26:28.071Z,-18.58
2023-01-13T04:29:31.549Z,-18.49
2023-01-13T04:32:34.856Z,-18.42
2023-01-13T04:35:38.805Z,-18.39
2023-01-13T04:38:42.026Z,-18.30
2023-01-13T04:42:00.524Z,-18.26
2023-01-13T04:45:05.034Z,-18.28
2023-01-13T04:48:08.455Z,-18.25
2023-01-13T04:51:11.905Z,-18.21
2023-01-13T04:54:15.250Z,-18.16
2023-01-13T04:57:18.376Z,-18.14
2023-01-13T05:00:23.479Z,-18.08
2023-01-13T05:03:27.492Z,-18.01
2023-01-13T05:06:30.351Z,-17.99
2023-01-13T05:09:33.489Z,-17.91
2023-01-13T05:13:08.786Z,-17.84
2023-01-13T05:16:31.454Z,-17.76
2023-01-13T05:19:36.481Z,-17.73
2023-01-13T05:22:58.140Z,-17.77
2023-01-13T05:26:01.469Z,-17.69
2023-01-13T05:29:04.639Z,-17.73
2023-01-13T05:32:09.033Z,-17.68
2023-01-13T05:35:12.318Z,-17.72
2023-01-13T05:38:15.918Z,-17.59
2023-01-13T05:41:38.535Z,-17.63
2023-01-13T05:44:46.379Z,-17.54
2023-01-13T05:47:53.871Z,-17.43
2023-01-13T05:50:58.108Z,-17.46
2023-01-13T05:54:01.980Z,-17.52
2023-01-13T05:57:05.758Z,-17.52
2023-01-13T06:00:10.491Z,-17.51
2023-01-13T06:03:18.432Z,-17.46
2023-01-13T06:06:21.685Z,-17.44
2023-01-13T06:09:24.862Z,-17.42
2023-01-13T06:12:27.956Z,-17.35
2023-01-13T06:15:31.110Z,-17.32
2023-01-13T06:18:34.404Z,-17.23
2023-01-13T06:21:37.869Z,-17.25
2023-01-13T06:24:41.212Z,-17.28
2023-01-13T06:27:44.658Z,-17.25
2023-01-13T06:30:55.967Z,-17.19
2023-01-13T06:34:03.398Z,-17.19
2023-01-13T06:37:07.278Z,-17.16
2023-01-13T06:40:12.517Z,-17.17
2023-01-13T06:43:16.671Z,-17.11
2023-01-13T06:46:20.477Z,-17.09
2023-01-13T06:49:23.566Z,-17.14
2023-01-13T06:52:27.968Z,-17.15
2023-01-13T06:55:31.347Z,-17.19
2023-01-13T06:58:34.781Z,-17.23
2023-01-13T07:01:38.745Z,-17.27
2023-01-13T07:04:42.061Z,-17.31
2023-01-13T07:07:45.460Z,-17.28
2023-01-13T07:10:48.577Z,-17.33
2023-01-13T07:14:09.945Z,-17.29
2023-01-13T07:17:13.171Z,-17.32
2023-01-13T07:20:17.399Z,-17.36
2023-01-13T07:23:20.534Z,-17.39
2023-01-13T07:26:23.625Z,-17.37
2023-01-13T07:29:26.796Z,-16.84
2023-01-13T07:32:32.156Z,-16.58
2023-01-13T07:35:35.295Z,-16.77
2023-01-13T07:38:40.451Z,-16.99
2023-01-13T07:42:02.005Z,-17.24
2023-01-13T07:45:05.491Z,-17.47
2023-01-13T07:48:12.071Z,-17.59
2023-01-13T07:51:15.838Z,-17.70
2023-01-13T07:54:19.445Z,-17.78
2023-01-13T07:57:22.586Z,-17.85
2023-01-13T08:00:26.072Z,-17.82
2023-01-13T08:03:29.267Z,-17.86
2023-01-13T08:06:32.493Z,-17.98
2023-01-13T08:09:35.644Z,-18.08
2023-01-13T08:12:57.302Z,-18.18
2023-01-13T08:16:03.301Z,-18.29
2023-01-13T08:19:06.610Z,-18.35
2023-01-13T08:22:09.788Z,-18.47
2023-01-13T08:25:13.119Z,-18.61
2023-01-13T08:28:17.299Z,-18.70
2023-01-13T08:31:20.685Z,-18.79
2023-01-13T08:34:24.680Z,-18.84
2023-01-13T08:37:28.465Z,-18.87
2023-01-13T08:40:33.219Z,-18.93
2023-01-13T08:43:39.630Z,-18.99
2023-01-13T08:46:43.690Z,-19.04
2023-01-13T08:49:46.842Z,-19.10
2023-01-13T08:52:51.824Z,-19.24
2023-01-13T08:55:55.390Z,-19.30
2023-01-13T08:59:02.533Z,-19.39
2023-01-13T09:02:17.771Z,-19.44
2023-01-13T09:05:21.940Z,-19.44
2023-01-13T09:08:25.564Z,-19.49
2023-01-13T09:11:54.515Z,-19.51
2023-01-13T09:14:58.353Z,-19.55
2023-01-13T09:18:03.486Z,-19.53
2023-01-13T09:21:07.377Z,-19.58
2023-01-13T09:24:11.357Z,-19.63
2023-01-13T09:27:18.200Z,-19.64
2023-01-13T09:30:22.074Z,-19.66
2023-01-13T09:33:44.829Z,-19.69
2023-01-13T09:36:48.128Z,-19.70
2023-01-13T09:39:51.602Z,-19.69
2023-01-13T09:43:26.164Z,-19.75
2023-01-13T09:46:45.450Z,-19.76
2023-01-13T09:49:49.170Z,-19.76
2023-01-13T09:52:53.429Z,-19.78
2023-01-13T09:55:56.760Z,-19.80
2023-01-13T09:58:59.928Z,-19.78
2023-01-13T10:02:18.481Z,-19.77
2023-01-13T10:05:28.516Z,-19.82
2023-01-13T10:08:35.198Z,-19.82
2023-01-13T10:12:00.077Z,-19.82
2023-01-13T10:15:03.253Z,-19.86
2023-01-13T10:18:26.675Z,-19.86
2023-01-13T10:22:01.486Z,-19.89
2023-01-13T10:25:04.689Z,-19.90
2023-01-13T10:28:14.098Z,-19.93
2023-01-13T10:31:18.327Z,-19.93
2023-01-13T10:34:22.046Z,-19.92
2023-01-13T10:37:28.306Z,-19.93
2023-01-13T10:40:31.558Z,-19.96
2023-01-13T10:43:34.720Z,-20.01
2023-01-13T10:46:54.245Z,-20.07
2023-01-13T10:50:09.556Z,-20.05
2023-01-13T10:53:51.751Z,-20.06
2023-01-13T10:57:19.719Z,-20.06
2023-01-13T11:00:31.927Z,-20.06
2023-01-13T11:03:42.352Z,-20.01
2023-01-13T11:06:48.112Z,-20.04
2023-01-13T11:10:10.270Z,-20.03
2023-01-13T11:13:24.739Z,-20.00
2023-01-13T11:16:28.899Z,-19.97
2023-01-13T11:19:35.992Z,-19.96
2023-01-13T11:22:50.603Z,-19.96
2023-01-13T11:26:00.203Z,-19.98
2023-01-13T11:29:31.713Z,-20.01
2023-01-13T11:32:42.085Z,-20.03
2023-01-13T11:36:24.183Z,-20.05
2023-01-13T11:39:45.393Z,-20.05
2023-01-13T11:43:11.216Z,-20.05
2023-01-13T11:46:15.925Z,-20.06
2023-01-13T11:49:30.845Z,-20.09
2023-01-13T11:53:05.614Z,-20.03
2023-01-13T11:56:32.725Z,-19.97
2023-01-13T11:59:35.960Z,-19.98
2023-01-13T12:03:02.387Z,-20.01
2023-01-13T12:06:36.566Z,-20.05
2023-01-13T12:09:53.681Z,-20.11
2023-01-13T12:13:21.597Z,-20.17
2023-01-13T12:16:24.722Z,-20.22
2023-01-13T12:19:30.621Z,-20.26
2023-01-13T12:22:36.867Z,-20.29
2023-01-13T12:25:50.989Z,-20.29
2023-01-13T12:28:58.802Z,-20.27
2023-01-13T12:32:06.498Z,-20.28
2023-01-13T12:35:21.448Z,-20.24
2023-01-13T12:38:50.954Z,-20.20
2023-01-13T12:42:52.942Z,-20.23
2023-01-13T12:46:25.342Z,-20.26
2023-01-13T12:49:34.035Z,-20.31
2023-01-13T12:52:46.848Z,-20.36
2023-01-13T12:55:53.870Z,-20.38
2023-01-13T12:59:19.748Z,-20.36
2023-01-13T13:02:32.495Z,-20.28
2023-01-13T13:06:08.896Z,-20.31
2023-01-13T13:09:27.023Z,-20.29
2023-01-13T13:13:20.899Z,-20.27
2023-01-13T13:16:27.648Z,-20.32
2023-01-13T13:19:33.999Z,-20.36
2023-01-13T13:22:45.797Z,-20.42
2023-01-13T13:26:14.419Z,-20.41
2023-01-13T13:29:35.555Z,-20.40
2023-01-13T13:32:47.757Z,-20.39
2023-01-13T13:36:21.868Z,-20.36
2023-01-13T13:39:48.686Z,-20.34
2023-01-13T13:43:17.246Z,-20.32
2023-01-13T13:46:49.313Z,-20.30
2023-01-13T13:49:55.210Z,-20.33
2023-01-13T13:53:09.216Z,-20.33
2023-01-13T13:56:22.568Z,-20.34
2023-01-13T13:59:31.359Z,-20.33
2023-01-13T14:02:38.447Z,-20.32
2023-01-13T14:05:57.830Z,-20.31
2023-01-13T14:09:03.206Z,-20.31
2023-01-13T14:12:14.953Z,-20.33
2023-01-13T14:15:35.737Z,-20.35
2023-01-13T14:18:46.352Z,-20.38
2023-01-13T14:21:49.675Z,-20.40
2023-01-13T14:24:59.254Z,-20.53
2023-01-13T14:28:34.837Z,-20.56
2023-01-13T14:31:40.349Z,-20.59
2023-01-13T14:34:44.065Z,-20.61
2023-01-13T14:37:49.582Z,-20.61
2023-01-13T14:40:52.802Z,-20.66
2023-01-13T14:44:00.091Z,-20.65
2023-01-13T14:47:18.011Z,-20.62
2023-01-13T14:50:30.154Z,-20.60
2023-01-13T14:53:47.545Z,-20.57
2023-01-13T14:56:56.200Z,-20.56
2023-01-13T15:00:14.406Z,-20.53
2023-01-13T15:03:19.912Z,-20.52
2023-01-13T15:06:25.087Z,-20.48
2023-01-13T15:09:42.563Z,-20.46
2023-01-13T15:12:46.240Z,-20.47
2023-01-13T15:15:51.401Z,-20.41
2023-01-13T15:18:56.309Z,-20.40
2023-01-13T15:22:01.889Z,-20.42
2023-01-13T15:25:05.736Z,-20.37
2023-01-13T15:28:20.870Z,-20.38
2023-01-13T15:31:25.838Z,-20.37
2023-01-13T15:34:28.964Z,-20.35
2023-01-13T15:37:32.094Z,-20.33
2023-01-13T15:40:35.532Z,-20.34
2023-01-13T15:43:57.150Z,-20.34
2023-01-13T15:47:07.206Z,-20.38
2023-01-13T15:50:16.029Z,-20.35
2023-01-13T15:53:19.220Z,-20.35
2023-01-13T15:56:29.679Z,-20.39
2023-01-13T15:59:34.682Z,-20.40
2023-01-13T16:02:42.693Z,-20.41
2023-01-13T16:05:46.347Z,-20.47
2023-01-13T16:08:49.506Z,-20.43
2023-01-13T16:11:52.613Z,-20.44
2023-01-13T16:14:56.000Z,-20.42
2023-01-13T16:18:01.688Z,-20.41
2023-01-13T16:21:05.032Z,-20.40
2023-01-13T16:24:08.701Z,-20.40
2023-01-13T16:27:14.913Z,-20.40
2023-01-13T16:30:30.788Z,-20.41
2023-01-13T16:33:37.328Z,-20.41
2023-01-13T16:36:40.434Z,-20.42
2023-01-13T16:39:43.720Z,-20.42
2023-01-13T16:42:46.848Z,-20.42
2023-01-13T16:45:50.290Z,-20.43
2023-01-13T16:48:59.145Z,-20.42
2023-01-13T16:52:02.813Z,-20.46
2023-01-13T16:55:07.225Z,-20.49
2023-01-13T16:58:18.752Z,-20.51
2023-01-13T17:01:30.916Z,-20.52
2023-01-13T17:04:34.217Z,-20.52
2023-01-13T17:07:37.443Z,-20.55
2023-01-13T17:10:40.599Z,-20.54
2023-01-13T17:13:43.836Z,-20.54
2023-01-13T17:16:47.516Z,-20.53
2023-01-13T17:19:51.132Z,-20.58
2023-01-13T17:22:58.293Z,-20.59
2023-01-13T17:26:02.040Z,-20.64
2023-01-13T17:29:07.913Z,-20.65
2023-01-13T17:32:16.357Z,-20.63
2023-01-13T17:35:25.376Z,-20.65
2023-01-13T17:38:28.657Z,-20.65
2023-01-13T17:41:31.782Z,-20.66
2023-01-13T17:44:35.180Z,-20.72
2023-01-13T17:47:39.051Z,-20.74
2023-01-13T17:50:48.371Z,-20.78
2023-01-13T17:53:51.629Z,-20.82
2023-01-13T17:56:57.034Z,-20.80
2023-01-13T18:00:00.194Z,-20.81
2023-01-13T18:03:03.304Z,-20.80
2023-01-13T18:06:08.733Z,-20.81
2023-01-13T18:09:12.917Z,-20.90
2023-01-13T18:12:16.069Z,-20.89
2023-01-13T18:15:19.151Z,-20.88
2023-01-13T18:18:22.302Z,-20.90
2023-01-13T18:21:46.319Z,-20.91
2023-01-13T18:25:07.938Z,-20.96
2023-01-13T18:28:10.983Z,-20.99
2023-01-13T18:31:14.062Z,-21.01
2023-01-13T18:34:17.288Z,-20.97
2023-01-13T18:37:20.403Z,-21.07
2023-01-13T18:40:23.501Z,-21.05
2023-01-13T18:43:26.733Z,-21.11
2023-01-13T18:46:29.854Z,-21.15
2023-01-13T18:49:33.172Z,-21.21
2023-01-13T18:52:37.486Z,-21.23
2023-01-13T18:55:40.534Z,-21.26
2023-01-13T18:58:51.677Z,-21.26
2023-01-13T19:01:55.088Z,-21.27
2023-01-13T19:04:58.308Z,-21.28
2023-01-13T19:08:01.728Z,-21.25
2023-01-13T19:11:08.420Z,-21.25
2023-01-13T19:14:11.576Z,-21.19
2023-01-13T19:17:16.818Z,-21.19
2023-01-13T19:20:20.808Z,-21.23
2023-01-13T19:23:23.910Z,-21.27
2023-01-13T19:26:27.071Z,-21.27
2023-01-13T19:29:33.812Z,-21.32
2023-01-13T19:32:37.074Z,-21.31
2023-01-13T19:35:40.139Z,-21.26
2023-01-13T19:38:43.261Z,-21.28
2023-01-13T19:42:04.876Z,-21.27
2023-01-13T19:45:28.220Z,-21.24
2023-01-13T19:48:31.709Z,-21.30
2023-01-13T19:51:34.862Z,-21.36
2023-01-13T19:54:38.160Z,-21.41
2023-01-13T19:57:41.639Z,-21.39
2023-01-13T20:00:47.920Z,-21.39
2023-01-13T20:03:51.161Z,-21.38
2023-01-13T20:06:54.308Z,-21.36
2023-01-13T20:09:57.872Z,-21.42
2023-01-13T20:13:00.689Z,-21.50
2023-01-13T20:16:06.100Z,-21.58
2023-01-13T20:19:09.234Z,-21.62
2023-01-13T20:22:12.857Z,-21.63
2023-01-13T20:25:18.124Z,-21.64
2023-01-13T20:28:21.307Z,-21.66
2023-01-13T20:31:24.582Z,-21.62
2023-01-13T20:34:28.045Z,-21.61
2023-01-13T20:37:31.351Z,-21.59
2023-01-13T20:40:34.478Z,-21.56
2023-01-13T20:43:37.484Z,-21.54
2023-01-13T20:46:42.124Z,-21.56
2023-01-13T20:49:45.360Z,-21.53
2023-01-13T20:52:49.086Z,-21.48
2023-01-13T20:55:52.347Z,-21.51
2023-01-13T20:58:55.459Z,-21.52
2023-01-13T21:01:58.879Z,-21.55
2023-01-13T21:05:01.997Z,-21.58
2023-01-13T21:08:05.309Z,-21.62
2023-01-13T21:11:11.153Z,-21.63
2023-01-13T21:14:35.921Z,-21.67
2023-01-13T21:17:57.452Z,-21.65
2023-01-13T21:21:14.291Z,-21.72
2023-01-13T21:24:17.378Z,-21.68
2023-01-13T21:27:20.859Z,-21.68
2023-01-13T21:30:23.877Z,-21.69
2023-01-13T21:33:26.945Z,-21.73
2023-01-13T21:36:30.131Z,-21.73
2023-01-13T21:39:33.385Z,-21.77
2023-01-13T21:42:54.961Z,-21.82
2023-01-13T21:46:16.564Z,-21.86
2023-01-13T21:49:19.752Z,-21.93
2023-01-13T21:52:26.087Z,-22.01
2023-01-13T21:55:29.407Z,-22.04
2023-01-13T21:58:32.556Z,-22.05
2023-01-13T22:01:35.734Z,-22.06
2023-01-13T22:04:42.141Z,-22.07
2023-01-13T22:07:46.576Z,-22.07
2023-01-13T22:10:59.102Z,-22.02
2023-01-13T22:14:09.566Z,-22.04
2023-01-13T22:17:15.773Z,-22.03
2023-01-13T22:20:19.928Z,-22.06
2023-01-13T22:23:23.062Z,-22.08
2023-01-13T22:26:27.047Z,-22.06
2023-01-13T22:29:30.334Z,-22.06
2023-01-13T22:32:37.613Z,-22.12
2023-01-13T22:35:40.767Z,-22.11
2023-01-13T22:38:43.869Z,-22.09
2023-01-13T22:41:47.234Z,-22.08
2023-01-13T22:44:50.139Z,-22.07
2023-01-13T22:47:53.295Z,-22.08
2023-01-13T22:50:56.804Z,-22.08
2023-01-13T22:54:00.226Z,-22.00
2023-01-13T22:57:03.352Z,-22.02
2023-01-13T23:00:06.913Z,-22.05
2023-01-13T23:03:10.332Z,-22.02
2023-01-13T23:06:13.571Z,-22.06
2023-01-13T23:09:17.134Z,-22.05
2023-01-13T23:12:19.926Z,-22.07
2023-01-13T23:15:23.153Z,-22.14
2023-01-13T23:18:26.978Z,-22.34
2023-01-13T23:21:32.823Z,-22.50
2023-01-13T23:24:35.874Z,-22.56
2023-01-13T23:27:39.309Z,-22.71
2023-01-13T23:30:42.185Z,-22.86
2023-01-13T23:33:45.686Z,-23.07
2023-01-13T23:36:48.789Z,-23.17
2023-01-13T23:39:51.924Z,-23.13
2023-01-13T23:42:55.148Z,-23.08
2023-01-13T23:46:07.289Z,-23.01
2023-01-13T23:49:10.658Z,-23.13
2023-01-13T23:52:13.934Z,-23.22
2023-01-13T23:55:17.210Z,-23.29
2023-01-13T23:58:20.270Z,-23.27
